Time;durP1;ratioP1;P1;durP2;ratioP2;P2;SDS_P1;SDS_P2;PMS_P1;PMS_P2;Temp;Humidity;BMP_temperature;BMP_pressure;BME280_temperature;BME280_humidity;BME280_pressure;Samples;Min_cycle;Max_cycle;Signal;HPM_P1;HPM_P2
2023/06/09 00:00:19;;;;;;;10.80;6.50;;;19.00;99.90;;;;;;4957274;28;20214;-61
2023/06/09 00:02:50;;;;;;;14.60;6.83;;;19.00;99.90;;;;;;4956276;28;20224;-61
2023/06/09 00:05:20;;;;;;;12.10;6.97;;;19.00;99.90;;;;;;4956105;28;20220;-61
2023/06/09 00:07:50;;;;;;;9.03;6.17;;;18.90;99.90;;;;;;4956286;28;20231;-61
2023/06/09 00:10:21;;;;;;;10.37;6.50;;;18.90;99.90;;;;;;4956184;28;20228;-61
2023/06/09 00:12:50;;;;;;;9.70;6.53;;;18.90;99.90;;;;;;4956120;28;20227;-61
2023/06/09 00:15:19;;;;;;;12.33;7.27;;;18.90;99.90;;;;;;4956374;28;20255;-61
2023/06/09 00:17:48;;;;;;;9.30;6.87;;;18.90;99.90;;;;;;4956267;28;20224;-61
2023/06/09 00:20:17;;;;;;;15.37;7.10;;;18.90;99.90;;;;;;4956038;28;20734;-62
2023/06/09 00:22:47;;;;;;;12.53;6.83;;;18.80;99.90;;;;;;4936483;28;20224;-61
2023/06/09 00:25:20;;;;;;;10.63;6.60;;;18.90;99.90;;;;;;4937351;28;20225;-62
2023/06/09 00:27:49;;;;;;;11.47;6.90;;;18.80;99.90;;;;;;4956128;28;20212;-61
2023/06/09 00:30:22;;;;;;;12.93;6.93;;;18.80;99.90;;;;;;4956709;28;20200;-61
2023/06/09 00:33:06;;;;;;;12.00;6.50;;;18.80;99.90;;;;;;4955828;28;20219;-61
2023/06/09 00:35:35;;;;;;;9.23;6.57;;;18.70;99.90;;;;;;4955169;28;20241;-61
2023/06/09 00:38:03;;;;;;;12.63;7.23;;;18.70;99.90;;;;;;4955378;28;20586;-61
2023/06/09 00:40:31;;;;;;;11.87;6.60;;;18.70;99.90;;;;;;4955768;28;20223;-61
2023/06/09 00:43:01;;;;;;;9.73;6.50;;;18.70;99.90;;;;;;4955453;28;20746;-60
2023/06/09 00:45:29;;;;;;;10.47;6.67;;;18.60;99.90;;;;;;4956205;28;20203;-61
2023/06/09 00:47:58;;;;;;;10.53;6.47;;;18.60;99.90;;;;;;4955030;28;20618;-62
2023/06/09 00:50:26;;;;;;;11.43;6.57;;;18.60;99.90;;;;;;4955651;28;20579;-61
2023/06/09 00:52:57;;;;;;;14.20;6.87;;;18.60;99.90;;;;;;4954945;28;20232;-61
2023/06/09 00:55:26;;;;;;;10.77;6.67;;;18.60;99.90;;;;;;4949316;28;20246;-62
2023/06/09 00:57:56;;;;;;;9.57;6.10;;;18.60;99.90;;;;;;4955508;28;20228;-61
2023/06/09 01:00:28;;;;;;;12.73;6.10;;;18.60;99.90;;;;;;4955511;28;20196;-61
2023/06/09 01:03:00;;;;;;;13.00;6.80;;;18.50;99.90;;;;;;4954057;29;20250;-61
2023/06/09 01:05:29;;;;;;;7.40;6.13;;;18.50;99.90;;;;;;4954004;29;20228;-61
2023/06/09 01:08:07;;;;;;;13.03;6.23;;;18.50;99.90;;;;;;4955006;28;20224;-62
2023/06/09 01:10:42;;;;;;;12.93;6.47;;;18.50;99.90;;;;;;4954017;28;20254;-61
2023/06/09 01:13:18;;;;;;;10.97;6.70;;;18.50;99.90;;;;;;4955268;28;20242;-61
2023/06/09 01:16:01;;;;;;;7.60;6.70;;;18.50;99.90;;;;;;4955358;28;20187;-61
2023/06/09 01:18:31;;;;;;;9.77;6.60;;;18.40;99.90;;;;;;4942597;29;20189;-62
2023/06/09 01:21:12;;;;;;;8.87;6.20;;;18.40;99.90;;;;;;4944486;29;20540;-62
2023/06/09 01:23:51;;;;;;;10.13;6.13;;;18.40;99.90;;;;;;4954968;28;20220;-62
2023/06/09 01:26:23;;;;;;;10.60;6.50;;;18.30;99.90;;;;;;4955078;28;20249;-61
2023/06/09 01:28:55;;;;;;;10.03;6.07;;;18.30;99.90;;;;;;4954806;28;20220;-61
2023/06/09 01:31:25;;;;;;;12.83;6.30;;;18.20;99.90;;;;;;4955413;28;20231;-61
2023/06/09 01:33:54;;;;;;;11.47;6.50;;;18.20;99.90;;;;;;4954749;28;20232;-61
2023/06/09 01:36:22;;;;;;;9.13;6.47;;;18.10;99.90;;;;;;4955362;28;20195;-62
2023/06/09 01:38:51;;;;;;;9.30;6.57;;;18.10;99.90;;;;;;4954793;28;20266;-61
2023/06/09 01:41:21;;;;;;;11.97;7.00;;;18.10;99.90;;;;;;4954878;28;20703;-62
2023/06/09 01:43:49;;;;;;;7.70;6.20;;;18.10;99.90;;;;;;4954797;28;20231;-62
2023/06/09 01:46:18;;;;;;;13.40;6.43;;;18.00;99.90;;;;;;4955048;28;20567;-61
2023/06/09 01:48:57;;;;;;;10.20;6.33;;;18.00;99.90;;;;;;4956403;28;20286;-62
2023/06/09 01:51:33;;;;;;;11.00;6.83;;;18.00;99.90;;;;;;4958927;28;20279;-61
2023/06/09 01:54:09;;;;;;;9.90;6.50;;;18.00;99.90;;;;;;4958702;28;20254;-61
2023/06/09 01:56:43;;;;;;;14.70;7.23;;;17.90;99.90;;;;;;4958471;28;20252;-61
2023/06/09 01:59:16;;;;;;;11.27;6.40;;;17.90;99.90;;;;;;4958446;28;20622;-62
2023/06/09 02:01:47;;;;;;;12.47;6.90;;;17.90;99.90;;;;;;4958693;28;20216;-61
2023/06/09 02:04:18;;;;;;;14.03;6.93;;;17.90;99.90;;;;;;4958081;28;20694;-62
2023/06/09 02:06:47;;;;;;;8.70;6.53;;;17.80;99.90;;;;;;4958633;28;20180;-62
2023/06/09 02:09:16;;;;;;;12.10;7.13;;;17.80;99.90;;;;;;4958581;28;20269;-62
2023/06/09 02:11:52;;;;;;;11.73;6.57;;;17.70;99.90;;;;;;4958135;28;20227;-62
2023/06/09 02:14:20;;;;;;;8.23;6.17;;;17.70;99.90;;;;;;4958120;28;20286;-61
2023/06/09 02:16:53;;;;;;;9.93;6.70;;;17.70;99.90;;;;;;4958136;28;20234;-62
2023/06/09 02:19:22;;;;;;;11.17;6.53;;;17.60;99.90;;;;;;4958069;28;20231;-62
2023/06/09 02:21:50;;;;;;;13.03;6.63;;;17.60;99.90;;;;;;4957679;28;20678;-62
2023/06/09 02:24:19;;;;;;;9.70;6.33;;;17.60;99.90;;;;;;4958162;28;20197;-62
2023/06/09 02:26:51;;;;;;;9.60;6.40;;;17.60;99.90;;;;;;4958000;28;20311;-62
2023/06/09 02:29:20;;;;;;;10.57;6.53;;;17.50;99.90;;;;;;4958007;28;20234;-61
2023/06/09 02:31:48;;;;;;;7.30;6.30;;;17.50;99.90;;;;;;4958016;28;20689;-62
2023/06/09 02:34:19;;;;;;;11.93;6.63;;;17.40;99.90;;;;;;4957611;28;20236;-61
2023/06/09 02:36:47;;;;;;;11.07;6.83;;;17.40;99.90;;;;;;4958035;28;20279;-61
2023/06/09 02:39:15;;;;;;;12.27;6.67;;;17.30;99.90;;;;;;4958247;28;20209;-62
2023/06/09 02:41:44;;;;;;;11.37;6.37;;;17.30;99.90;;;;;;4938857;28;20316;-61
2023/06/09 02:44:14;;;;;;;12.60;6.87;;;17.30;99.90;;;;;;4954258;28;20231;-62
2023/06/09 02:46:44;;;;;;;8.93;6.90;;;17.20;99.90;;;;;;4957662;28;20220;-62
2023/06/09 02:49:12;;;;;;;11.80;6.50;;;17.20;99.90;;;;;;4957553;28;20234;-61
2023/06/09 02:51:41;;;;;;;9.83;6.90;;;17.10;99.90;;;;;;4957957;28;20200;-62
2023/06/09 02:54:09;;;;;;;13.17;6.67;;;17.10;99.90;;;;;;4957763;28;20559;-62
2023/06/09 02:56:37;;;;;;;12.50;7.07;;;17.10;99.90;;;;;;4957541;28;20715;-61
2023/06/09 02:59:07;;;;;;;14.43;6.80;;;17.10;99.90;;;;;;4956931;28;20238;-61
2023/06/09 03:01:37;;;;;;;10.43;6.57;;;17.10;99.90;;;;;;4957773;28;20230;-61
2023/06/09 03:04:07;;;;;;;14.27;7.07;;;17.10;99.90;;;;;;4957663;28;20234;-61
2023/06/09 03:06:36;;;;;;;9.17;6.53;;;17.10;99.90;;;;;;4957494;28;20251;-61
2023/06/09 03:09:05;;;;;;;12.10;6.73;;;17.00;99.90;;;;;;4957880;28;20207;-62
2023/06/09 03:11:33;;;;;;;12.53;6.87;;;17.00;99.90;;;;;;4956908;28;20279;-61
2023/06/09 03:14:01;;;;;;;9.83;6.80;;;16.90;99.90;;;;;;4956852;28;20738;-62
2023/06/09 03:16:30;;;;;;;13.93;6.87;;;16.90;99.90;;;;;;4956965;28;20240;-61
2023/06/09 03:19:00;;;;;;;7.67;6.33;;;16.90;99.90;;;;;;4956694;28;20226;-61
2023/06/09 03:21:28;;;;;;;8.40;6.67;;;16.90;99.90;;;;;;4957795;28;20640;-62
2023/06/09 03:23:57;;;;;;;10.07;7.10;;;16.90;99.90;;;;;;4956854;28;20220;-62
2023/06/09 03:26:27;;;;;;;12.03;6.67;;;16.90;99.90;;;;;;4956962;28;20237;-62
2023/06/09 03:28:55;;;;;;;15.27;6.97;;;16.80;99.90;;;;;;4956669;28;20249;-61
2023/06/09 03:31:25;;;;;;;10.87;6.80;;;16.80;99.90;;;;;;4955617;29;20228;-61
2023/06/09 03:33:53;;;;;;;9.77;6.70;;;16.80;99.90;;;;;;4956769;28;20239;-61
2023/06/09 03:36:23;;;;;;;11.83;7.43;;;16.70;99.90;;;;;;4957377;28;20200;-61
2023/06/09 03:38:53;;;;;;;14.20;7.00;;;16.70;99.90;;;;;;4956430;28;20273;-61
2023/06/09 03:41:21;;;;;;;7.53;6.53;;;16.70;99.90;;;;;;4956572;28;20286;-61
2023/06/09 03:43:50;;;;;;;14.10;7.30;;;16.70;99.90;;;;;;4955235;29;20218;-61
2023/06/09 03:46:18;;;;;;;12.60;7.13;;;16.70;99.90;;;;;;4956855;28;20232;-61
2023/06/09 03:48:47;;;;;;;17.53;7.93;;;16.60;99.90;;;;;;4956548;28;20256;-61
2023/06/09 03:51:16;;;;;;;12.00;7.07;;;16.60;99.90;;;;;;4957096;28;20205;-62
2023/06/09 03:53:45;;;;;;;13.50;7.07;;;16.60;99.90;;;;;;4955870;28;20218;-61
2023/06/09 03:56:14;;;;;;;11.83;7.70;;;16.60;99.90;;;;;;4956369;28;20245;-61
2023/06/09 03:58:42;;;;;;;12.67;7.00;;;16.60;99.90;;;;;;4956451;28;20726;-61
2023/06/09 04:01:12;;;;;;;10.47;7.07;;;16.60;99.90;;;;;;4956320;28;20234;-61
2023/06/09 04:03:40;;;;;;;13.47;7.20;;;16.60;99.90;;;;;;4956339;28;20287;-62
2023/06/09 04:06:08;;;;;;;8.80;6.60;;;16.60;99.90;;;;;;4956588;28;20663;-61
2023/06/09 04:08:37;;;;;;;13.67;7.10;;;16.60;99.90;;;;;;4955964;28;20245;-61
2023/06/09 04:11:07;;;;;;;12.23;7.27;;;16.60;99.90;;;;;;4955419;28;20224;-62
2023/06/09 04:13:35;;;;;;;13.77;7.40;;;16.60;99.90;;;;;;4955928;28;20683;-63
2023/06/09 04:16:03;;;;;;;15.33;7.50;;;16.50;99.90;;;;;;4956183;28;20239;-62
2023/06/09 04:18:32;;;;;;;12.37;7.03;;;16.50;99.90;;;;;;4956684;28;20202;-61
2023/06/09 04:21:00;;;;;;;9.37;6.80;;;16.60;99.90;;;;;;4956380;28;20203;-61
2023/06/09 04:23:28;;;;;;;10.90;6.90;;;16.60;99.90;;;;;;4954368;28;20220;-61
2023/06/09 04:25:57;;;;;;;10.77;7.03;;;16.60;99.90;;;;;;4955779;28;20615;-62
2023/06/09 04:28:27;;;;;;;13.10;7.20;;;16.60;99.90;;;;;;4954480;29;20222;-62
2023/06/09 04:30:57;;;;;;;12.33;7.13;;;16.60;99.90;;;;;;4955990;28;20225;-61
2023/06/09 04:33:26;;;;;;;10.97;7.03;;;16.60;99.90;;;;;;4956425;28;20294;-61
2023/06/09 04:39:36;;;;;;;13.97;7.00;;;16.60;99.90;;;;;;4936315;29;20266;-61
2023/06/09 04:45:47;;;;;;;18.00;8.03;;;16.80;99.90;;;;;;4940657;29;20225;-61
2023/06/09 04:48:15;;;;;;;16.03;7.53;;;16.90;99.90;;;;;;4955635;28;20709;-62
2023/06/09 04:50:47;;;;;;;11.73;7.23;;;16.90;99.90;;;;;;4955459;28;20223;-62
2023/06/09 04:53:18;;;;;;;16.50;7.90;;;17.00;99.90;;;;;;4954558;29;20371;-61
2023/06/09 04:55:48;;;;;;;10.77;7.63;;;17.00;99.90;;;;;;4955263;28;20226;-61
2023/06/09 04:58:18;;;;;;;10.80;7.63;;;17.10;99.90;;;;;;4955165;28;20249;-61
2023/06/09 05:00:47;;;;;;;12.67;7.30;;;17.10;99.90;;;;;;4954859;28;20664;-61
2023/06/09 05:03:17;;;;;;;17.53;7.30;;;17.20;99.90;;;;;;4955766;28;20210;-61
2023/06/09 05:05:46;;;;;;;11.17;7.70;;;17.20;99.90;;;;;;4955367;28;20592;-61
2023/06/09 05:08:15;;;;;;;13.77;7.43;;;17.30;99.90;;;;;;4955310;28;20595;-61
2023/06/09 05:10:43;;;;;;;21.90;8.20;;;17.40;99.90;;;;;;4954912;28;20233;-61
2023/06/09 05:13:11;;;;;;;11.20;7.43;;;17.40;99.90;;;;;;4955018;28;20232;-62
2023/06/09 05:15:40;;;;;;;14.33;8.17;;;17.50;99.90;;;;;;4954794;28;20212;-61
2023/06/09 05:18:10;;;;;;;13.13;8.00;;;17.50;99.90;;;;;;4955130;28;20194;-61
2023/06/09 05:20:38;;;;;;;15.17;7.57;;;17.60;99.90;;;;;;4953472;28;20227;-61
2023/06/09 05:26:47;;;;;;;14.70;8.27;;;17.70;99.90;;;;;;4935699;28;20247;-62
2023/06/09 05:32:57;;;;;;;15.33;8.33;;;17.90;99.90;;;;;;4936861;29;20697;-62
2023/06/09 05:35:26;;;;;;;11.37;8.17;;;18.00;99.90;;;;;;4954713;28;20235;-61
2023/06/09 05:37:56;;;;;;;11.90;7.70;;;18.10;99.90;;;;;;4954835;28;20289;-61
2023/06/09 05:40:24;;;;;;;17.93;9.27;;;18.20;99.90;;;;;;4954706;28;20227;-62
2023/06/09 05:42:52;;;;;;;12.83;8.00;;;18.20;99.90;;;;;;4955150;28;20224;-62
2023/06/09 05:45:21;;;;;;;11.17;8.33;;;18.30;99.90;;;;;;4955362;28;20216;-62
2023/06/09 05:47:50;;;;;;;16.17;8.40;;;18.40;99.90;;;;;;4954609;28;20305;-61
2023/06/09 05:50:19;;;;;;;15.30;8.70;;;18.40;99.90;;;;;;4954873;28;20230;-62
2023/06/09 05:52:48;;;;;;;13.97;9.00;;;18.50;99.90;;;;;;4953430;28;20228;-62
2023/06/09 05:55:17;;;;;;;15.47;9.50;;;18.60;99.90;;;;;;4953771;28;20259;-62
2023/06/09 05:57:46;;;;;;;13.90;9.03;;;18.80;99.90;;;;;;4954939;28;20219;-62
2023/06/09 06:00:15;;;;;;;17.57;9.20;;;18.90;99.90;;;;;;4955315;28;20196;-62
2023/06/09 06:02:44;;;;;;;14.10;9.97;;;19.00;99.90;;;;;;4954545;28;20219;-61
2023/06/09 06:05:13;;;;;;;13.63;9.40;;;19.10;99.90;;;;;;4954507;28;20710;-61
2023/06/09 06:07:42;;;;;;;17.07;9.90;;;19.20;99.90;;;;;;4954955;28;20707;-62
2023/06/09 06:10:12;;;;;;;13.90;9.80;;;19.20;99.90;;;;;;4955026;28;20234;-62
2023/06/09 06:12:40;;;;;;;15.70;9.60;;;19.20;99.90;;;;;;4955023;28;20199;-62
2023/06/09 06:15:12;;;;;;;10.53;9.07;;;19.30;99.90;;;;;;4954938;28;20274;-62
2023/06/09 06:17:41;;;;;;;18.20;9.63;;;19.30;99.90;;;;;;4955104;28;20228;-62
2023/06/09 06:20:11;;;;;;;14.20;9.50;;;19.40;99.90;;;;;;4954532;28;20613;-62
2023/06/09 06:22:41;;;;;;;14.87;9.70;;;19.50;99.90;;;;;;4953677;29;20556;-62
2023/06/09 06:25:13;;;;;;;15.33;10.03;;;19.60;99.90;;;;;;4954891;28;20246;-62
2023/06/09 06:31:23;;;;;;;17.90;10.50;;;19.80;99.90;;;;;;4954552;28;20226;-62
2023/06/09 06:33:51;;;;;;;15.20;10.27;;;19.90;99.90;;;;;;4954740;28;20243;-63
2023/06/09 06:36:21;;;;;;;19.23;9.90;;;19.90;99.90;;;;;;4958289;28;20215;-62
2023/06/09 06:38:49;;;;;;;15.97;10.20;;;20.00;99.90;;;;;;4958163;28;20579;-62
2023/06/09 06:41:19;;;;;;;15.27;10.03;;;20.20;99.90;;;;;;4957897;28;20268;-62
2023/06/09 06:43:49;;;;;;;14.20;10.10;;;20.30;99.90;;;;;;4957563;28;20230;-62
2023/06/09 06:46:18;;;;;;;12.83;10.03;;;20.50;99.90;;;;;;4957885;28;20310;-61
2023/06/09 06:48:46;;;;;;;17.57;10.20;;;20.50;99.90;;;;;;4957779;28;20419;-62
2023/06/09 06:51:15;;;;;;;17.93;10.40;;;20.60;99.90;;;;;;4958007;28;20540;-62
2023/06/09 06:53:43;;;;;;;16.83;10.47;;;20.70;99.90;;;;;;4957606;28;20224;-61
2023/06/09 06:56:11;;;;;;;13.23;9.97;;;20.80;99.90;;;;;;4957760;28;20228;-62
2023/06/09 06:58:41;;;;;;;13.77;10.30;;;20.90;99.90;;;;;;4957761;28;20234;-62
2023/06/09 07:01:10;;;;;;;13.03;9.77;;;21.00;99.90;;;;;;4957518;28;20243;-62
2023/06/09 07:03:39;;;;;;;14.47;9.13;;;21.10;99.90;;;;;;4957549;28;20202;-62
2023/06/09 07:06:09;;;;;;;13.17;10.03;;;21.40;99.90;;;;;;4957600;28;20192;-62
2023/06/09 07:08:37;;;;;;;14.73;10.20;;;21.40;99.90;;;;;;4957800;28;20227;-62
2023/06/09 07:11:06;;;;;;;17.37;9.90;;;21.50;99.90;;;;;;4957287;28;20803;-62
2023/06/09 07:13:35;;;;;;;9.93;8.80;;;21.60;99.90;;;;;;4957449;28;20631;-62
2023/06/09 07:16:05;;;;;;;14.57;9.90;;;21.60;99.90;;;;;;4957288;28;20258;-62
2023/06/09 07:18:34;;;;;;;12.83;9.23;;;21.80;99.90;;;;;;4957359;28;20192;-62
2023/06/09 07:21:03;;;;;;;14.83;8.57;;;21.80;99.90;;;;;;4957658;28;20200;-62
2023/06/09 07:23:32;;;;;;;12.60;10.30;;;21.90;99.90;;;;;;4957175;28;20235;-62
2023/06/09 07:26:01;;;;;;;13.13;9.60;;;22.20;99.90;;;;;;4956978;28;20223;-63
2023/06/09 07:28:29;;;;;;;15.17;9.43;;;22.20;99.90;;;;;;4956872;28;20232;-62
2023/06/09 07:30:58;;;;;;;13.10;9.70;;;22.20;99.90;;;;;;4957057;28;20251;-62
2023/06/09 07:33:31;;;;;;;14.33;8.83;;;22.40;99.90;;;;;;4957705;28;20202;-63
2023/06/09 07:35:59;;;;;;;10.53;8.73;;;22.40;99.90;;;;;;4955618;29;20319;-62
2023/06/09 07:38:28;;;;;;;11.80;9.10;;;22.50;99.90;;;;;;4957034;28;20250;-63
2023/06/09 07:40:56;;;;;;;9.57;8.60;;;22.70;99.90;;;;;;4956654;28;20586;-62
2023/06/09 07:43:25;;;;;;;13.07;8.97;;;22.80;99.90;;;;;;4956549;28;20556;-62
2023/06/09 07:45:54;;;;;;;12.07;8.50;;;23.00;99.90;;;;;;4957162;28;20307;-62
2023/06/09 07:48:23;;;;;;;10.70;8.23;;;23.20;99.90;;;;;;4957074;28;20229;-62
2023/06/09 07:50:53;;;;;;;14.70;8.40;;;23.30;99.90;;;;;;4956448;28;20600;-62
2023/06/09 07:53:29;;;;;;;11.67;8.60;;;23.30;99.90;;;;;;4956671;28;20248;-63
2023/06/09 07:55:58;;;;;;;9.33;8.37;;;23.40;99.90;;;;;;4956591;28;20320;-62
2023/06/09 07:58:27;;;;;;;12.33;8.47;;;23.50;99.90;;;;;;4956388;28;20231;-62
2023/06/09 08:00:55;;;;;;;14.10;9.00;;;23.60;99.90;;;;;;4956434;28;20233;-62
2023/06/09 08:03:24;;;;;;;15.00;9.10;;;23.60;99.90;;;;;;4956593;28;20223;-62
2023/06/09 08:05:54;;;;;;;13.40;9.03;;;23.70;99.90;;;;;;4956729;28;20554;-62
2023/06/09 08:08:22;;;;;;;11.07;7.87;;;23.80;99.90;;;;;;4956199;28;20695;-62
2023/06/09 08:10:51;;;;;;;12.13;8.77;;;24.10;99.90;;;;;;4956244;28;20231;-62
2023/06/09 08:13:19;;;;;;;11.80;8.33;;;24.20;99.90;;;;;;4955966;28;20222;-62
2023/06/09 08:15:47;;;;;;;9.77;7.77;;;24.40;99.90;;;;;;4956158;28;20207;-62
2023/06/09 08:18:16;;;;;;;11.20;8.63;;;24.50;99.90;;;;;;4957023;28;20685;-62
2023/06/09 08:20:44;;;;;;;13.03;8.07;;;24.60;99.90;;;;;;4956072;28;20766;-62
2023/06/09 08:23:15;;;;;;;12.73;7.70;;;24.70;99.90;;;;;;4956101;28;20225;-62
2023/06/09 08:25:44;;;;;;;13.53;7.77;;;24.80;99.90;;;;;;4956093;28;20220;-62
2023/06/09 08:28:12;;;;;;;9.73;7.63;;;24.80;99.90;;;;;;4955657;28;20228;-62
2023/06/09 08:30:41;;;;;;;9.73;7.63;;;24.90;99.90;;;;;;4956121;28;20204;-62
2023/06/09 08:33:09;;;;;;;10.77;7.43;;;25.10;99.90;;;;;;4956505;28;20196;-62
2023/06/09 08:35:38;;;;;;;8.97;6.70;;;25.30;99.90;;;;;;4955904;28;20228;-63
2023/06/09 08:38:06;;;;;;;9.27;7.43;;;25.50;99.90;;;;;;4955378;28;20225;-63
2023/06/09 08:40:36;;;;;;;8.37;7.53;;;25.70;99.90;;;;;;4956073;28;20236;-63
2023/06/09 08:43:06;;;;;;;8.15;7.15;;;25.70;99.90;;;;;;4955896;28;20232;-63
2023/06/09 08:45:35;;;;;;;11.43;7.25;;;25.70;99.90;;;;;;4956130;28;20574;-62
2023/06/09 08:48:05;;;;;;;9.38;7.32;;;25.90;99.90;;;;;;4955737;28;20591;-63
2023/06/09 08:50:41;;;;;;;8.55;7.65;;;26.00;99.90;;;;;;4955574;28;20733;-63
2023/06/09 08:53:10;;;;;;;7.60;6.68;;;26.20;99.90;;;;;;4955680;28;20567;-63
2023/06/09 08:55:40;;;;;;;7.20;6.60;;;26.00;99.90;;;;;;4955706;28;20225;-63
2023/06/09 08:58:09;;;;;;;7.25;6.57;;;26.10;99.90;;;;;;4954903;28;20577;-62
2023/06/09 09:00:39;;;;;;;11.23;6.43;;;26.40;99.90;;;;;;4955392;28;20209;-63
2023/06/09 09:03:07;;;;;;;7.15;6.30;;;27.00;99.90;;;;;;4955030;29;20202;-63
2023/06/09 09:05:36;;;;;;;8.35;6.78;;;27.10;99.90;;;;;;4955252;28;20249;-64
2023/06/09 09:08:04;;;;;;;7.25;6.43;;;27.20;99.90;;;;;;4955247;28;20727;-63
2023/06/09 09:10:33;;;;;;;7.88;6.20;;;27.20;99.90;;;;;;4955403;28;20258;-64
2023/06/09 09:13:06;;;;;;;8.25;6.47;;;27.20;99.90;;;;;;4955214;28;20235;-63
2023/06/09 09:15:34;;;;;;;6.75;5.68;;;27.20;99.90;;;;;;4955215;28;20278;-63
2023/06/09 09:18:06;;;;;;;8.32;6.00;;;27.40;99.90;;;;;;4955760;28;20213;-64
2023/06/09 09:20:36;;;;;;;8.05;6.30;;;27.60;99.90;;;;;;4955380;28;20252;-63
2023/06/09 09:23:07;;;;;;;6.05;5.47;;;27.90;99.90;;;;;;4955185;28;20594;-63
2023/06/09 09:25:35;;;;;;;6.45;5.85;;;27.90;99.90;;;;;;4955136;28;20232;-64
2023/06/09 09:28:06;;;;;;;8.63;5.85;;;27.90;99.90;;;;;;4955207;28;20236;-63
2023/06/09 09:30:48;;;;;;;7.38;6.78;;;28.10;99.90;;;;;;4954971;28;20194;-63
2023/06/09 09:33:21;;;;;;;7.78;5.65;;;28.30;99.90;;;;;;4955725;28;20187;-64
2023/06/09 09:35:51;;;;;;;7.03;5.75;;;28.40;99.90;;;;;;4955132;28;20231;-64
2023/06/09 09:38:21;;;;;;;7.18;5.70;;;28.50;99.90;;;;;;4954745;28;20235;-64
2023/06/09 09:40:51;;;;;;;6.03;5.53;;;28.80;99.90;;;;;;4955581;28;20242;-63
2023/06/09 09:43:23;;;;;;;7.22;6.00;;;29.20;99.90;;;;;;4954944;28;20591;-64
2023/06/09 09:45:52;;;;;;;6.38;5.68;;;29.10;99.90;;;;;;4955258;28;20186;-63
2023/06/09 09:48:23;;;;;;;5.68;5.18;;;29.00;99.90;;;;;;4955363;28;20563;-63
2023/06/09 09:50:53;;;;;;;7.40;5.20;;;29.20;99.90;;;;;;4954101;29;20327;-64
2023/06/09 09:53:23;;;;;;;7.78;5.72;;;29.30;99.90;;;;;;4954849;28;20221;-63
2023/06/09 09:59:34;;;;;;;7.90;5.57;;;29.50;99.90;;;;;;4935881;28;20747;-63
2023/06/09 10:02:03;;;;;;;8.07;5.50;;;29.30;99.90;;;;;;4935903;28;20707;-65
2023/06/09 10:04:32;;;;;;;5.60;4.78;;;29.50;99.90;;;;;;4935731;28;20311;-64
2023/06/09 10:07:02;;;;;;;5.90;5.43;;;29.90;99.90;;;;;;4938251;28;20227;-63
2023/06/09 10:09:31;;;;;;;5.47;5.07;;;30.20;99.90;;;;;;4956550;28;20192;-63
2023/06/09 10:12:03;;;;;;;5.45;5.03;;;30.20;99.90;;;;;;4958719;28;20224;-64
2023/06/09 10:18:16;;;;;;;5.68;5.15;;;30.80;99.90;;;;;;4958636;28;20267;-63
2023/06/09 10:20:48;;;;;;;7.40;5.70;;;31.20;99.90;;;;;;4958707;28;20678;-64
2023/06/09 10:23:17;;;;;;;5.80;5.40;;;31.00;99.90;;;;;;4958276;28;20697;-63
2023/06/09 10:25:47;;;;;;;5.80;5.40;;;31.00;99.90;;;;;;4958219;28;20224;-63
2023/06/09 10:28:17;;;;;;;6.68;5.18;;;31.00;99.90;;;;;;4958459;28;20237;-63
2023/06/09 10:30:45;;;;;;;5.50;5.05;;;31.00;99.90;;;;;;4958274;28;20639;-63
2023/06/09 10:33:19;;;;;;;5.78;5.28;;;31.20;99.90;;;;;;4959253;28;20199;-63
2023/06/09 10:35:49;;;;;;;5.70;5.13;;;31.00;99.90;;;;;;4957944;28;20250;-63
2023/06/09 10:38:28;;;;;;;5.45;5.05;;;31.10;99.90;;;;;;4958117;28;20221;-63
2023/06/09 10:41:07;;;;;;;5.63;5.20;;;31.20;99.90;;;;;;4957955;28;20243;-63
2023/06/09 10:43:54;;;;;;;5.80;5.32;;;31.10;99.90;;;;;;4957927;28;20212;-63
2023/06/09 10:46:40;;;;;;;5.10;4.65;;;31.10;99.90;;;;;;4956786;29;20232;-63
2023/06/09 10:49:38;;;;;;;5.25;4.70;;;31.20;99.90;;;;;;4957734;28;20243;-64
2023/06/09 10:52:10;;;;;;;5.13;4.82;;;31.30;99.90;;;;;;4957833;28;20651;-63
2023/06/09 10:54:38;;;;;;;5.32;4.90;;;31.50;99.90;;;;;;4957700;28;20216;-63
2023/06/09 10:57:28;;;;;;;6.10;5.20;;;31.20;99.90;;;;;;4957854;28;20196;-63
2023/06/09 10:59:57;;;;;;;6.53;4.97;;;31.20;99.90;;;;;;4957277;28;20255;-63
2023/06/09 11:02:26;;;;;;;4.88;4.55;;;31.20;99.90;;;;;;4957706;28;20630;-63
2023/06/09 11:04:56;;;;;;;5.05;4.55;;;31.50;99.90;;;;;;4957596;28;20229;-63
2023/06/09 11:07:27;;;;;;;6.45;4.38;;;31.70;99.90;;;;;;4956606;29;20236;-63
2023/06/09 11:10:35;;;;;;;8.85;5.05;;;31.50;99.90;;;;;;4957973;28;20223;-63
2023/06/09 11:13:19;;;;;;;5.80;4.78;;;31.40;99.90;;;;;;4957743;28;20720;-64
2023/06/09 11:16:03;;;;;;;5.80;4.50;;;31.50;99.90;;;;;;4954048;28;20208;-64
2023/06/09 11:18:33;;;;;;;5.05;4.60;;;31.30;99.90;;;;;;4957653;28;20216;-64
2023/06/09 11:21:18;;;;;;;4.50;4.30;;;31.30;99.90;;;;;;4957824;28;20208;-63
2023/06/09 11:24:04;;;;;;;4.78;4.45;;;31.10;99.90;;;;;;4957388;28;20271;-63
2023/06/09 11:26:33;;;;;;;4.72;4.43;;;31.10;99.90;;;;;;4957094;28;20318;-63
2023/06/09 11:29:04;;;;;;;5.07;4.20;;;31.30;99.90;;;;;;4957374;28;20590;-63
2023/06/09 11:35:40;;;;;;;4.47;4.20;;;31.30;99.90;;;;;;4956992;28;20219;-63
2023/06/09 11:38:11;;;;;;;4.53;4.13;;;31.20;99.90;;;;;;4957056;28;20670;-63
2023/06/09 11:40:49;;;;;;;7.28;4.07;;;31.20;99.90;;;;;;4957055;28;20245;-63
2023/06/09 11:43:19;;;;;;;4.47;4.05;;;31.40;99.90;;;;;;4956921;28;20219;-62
2023/06/09 11:45:48;;;;;;;7.78;4.32;;;31.20;99.90;;;;;;4956841;28;20207;-63
2023/06/09 11:48:17;;;;;;;7.60;4.20;;;31.10;99.90;;;;;;4957061;28;20319;-63
2023/06/09 11:50:47;;;;;;;4.60;4.20;;;31.10;99.90;;;;;;4956426;28;20227;-62
2023/06/09 11:53:18;;;;;;;4.60;4.20;;;31.00;99.90;;;;;;4956439;28;20567;-62
2023/06/09 11:55:46;;;;;;;4.43;4.20;;;31.00;99.90;;;;;;4956729;28;20242;-63
2023/06/09 11:58:17;;;;;;;4.35;4.05;;;31.00;99.90;;;;;;4956529;28;20731;-64
2023/06/09 12:00:47;;;;;;;4.07;3.80;;;31.20;99.90;;;;;;4956509;28;20538;-62
2023/06/09 12:03:19;;;;;;;4.47;4.22;;;31.20;99.90;;;;;;4956785;28;20270;-63
2023/06/09 12:05:49;;;;;;;4.40;4.10;;;31.00;99.90;;;;;;4956559;28;20225;-63
2023/06/09 12:08:19;;;;;;;4.38;4.07;;;30.90;99.90;;;;;;4956384;28;20227;-63
2023/06/09 12:10:47;;;;;;;4.82;4.15;;;31.10;99.90;;;;;;4956157;28;20242;-64
2023/06/09 12:13:16;;;;;;;6.78;4.75;;;31.20;99.90;;;;;;4955970;28;20601;-63
2023/06/09 12:15:52;;;;;;;3.78;3.60;;;31.10;99.90;;;;;;4956641;28;20204;-63
2023/06/09 12:18:21;;;;;;;7.43;4.38;;;31.20;99.90;;;;;;4956039;28;20209;-63
2023/06/09 12:20:50;;;;;;;4.68;4.28;;;30.70;99.90;;;;;;4956250;28;20233;-63
2023/06/09 12:23:27;;;;;;;4.35;4.13;;;30.70;99.90;;;;;;4956002;28;20239;-63
2023/06/09 12:25:56;;;;;;;4.30;3.90;;;30.70;99.90;;;;;;4956147;28;20224;-63
2023/06/09 12:28:26;;;;;;;4.30;4.13;;;30.70;99.90;;;;;;4956250;28;20221;-63
2023/06/09 12:30:56;;;;;;;4.70;4.30;;;31.00;99.90;;;;;;4956309;28;20272;-63
2023/06/09 12:33:26;;;;;;;6.60;4.20;;;31.20;99.90;;;;;;4955842;28;20190;-63
2023/06/09 12:36:05;;;;;;;4.50;4.10;;;31.10;99.90;;;;;;4954491;29;20272;-63
2023/06/09 12:42:16;;;;;;;6.95;4.47;;;30.90;99.90;;;;;;4956131;28;20267;-63
2023/06/09 12:44:48;;;;;;;4.78;4.40;;;30.70;99.90;;;;;;4955631;28;20233;-62
2023/06/09 12:47:17;;;;;;;4.38;4.07;;;30.50;99.90;;;;;;4955345;28;20261;-64
2023/06/09 12:49:47;;;;;;;8.77;4.38;;;30.40;99.90;;;;;;4955883;28;20306;-65
2023/06/09 12:52:15;;;;;;;4.80;4.40;;;30.40;99.90;;;;;;4955664;28;20220;-64
2023/06/09 12:54:50;;;;;;;4.93;4.55;;;30.40;99.90;;;;;;4955852;28;20207;-65
2023/06/09 12:57:36;;;;;;;5.00;4.60;;;30.50;99.90;;;;;;4954928;28;20189;-64
2023/06/09 13:00:08;;;;;;;4.50;4.20;;;30.60;99.90;;;;;;4955910;29;20265;-64
2023/06/09 13:02:50;;;;;;;4.47;4.20;;;30.70;99.90;;;;;;4955108;28;20227;-63
2023/06/09 13:05:19;;;;;;;4.50;4.20;;;30.70;99.90;;;;;;4954861;28;20217;-63
2023/06/09 13:07:48;;;;;;;5.90;4.22;;;30.50;99.90;;;;;;4954907;28;20232;-64
2023/06/09 13:10:16;;;;;;;4.93;4.63;;;30.50;99.90;;;;;;4954712;28;20311;-63
2023/06/09 13:12:50;;;;;;;4.53;4.10;;;30.50;99.90;;;;;;4955520;28;20543;-64
2023/06/09 13:15:20;;;;;;;6.22;4.03;;;30.60;99.00;;;;;;4955877;28;20215;-63
2023/06/09 13:17:49;;;;;;;5.28;3.90;;;30.80;99.90;;;;;;4955451;28;20315;-62
2023/06/09 13:20:18;;;;;;;4.47;4.18;;;31.10;99.90;;;;;;4955311;28;20725;-64
2023/06/09 13:22:47;;;;;;;5.35;4.13;;;31.10;99.90;;;;;;4955282;28;20232;-63
2023/06/09 13:25:16;;;;;;;5.80;4.18;;;31.30;99.90;;;;;;4955590;28;20697;-63
2023/06/09 13:27:46;;;;;;;4.18;3.97;;;31.30;97.80;;;;;;4955656;28;20189;-63
2023/06/09 13:30:14;;;;;;;6.03;4.20;;;31.20;99.40;;;;;;4955483;29;20193;-63